Weather at Al Casale Airfield

Public forecast

Using degrees Celsius for public forecast. Weather courtesy of forecast.io.

Closest aviation weather report (METAR) to Al Casale Airfield

Closest report is Udine-Rivolto Air Base, 5.3 nm (9.7 km) E.

2024/07/22 09:55 (retrieved 1 hour ago)

LIPI 220955Z 35006KT 9999 FEW100 29/23 Q1011

Closest aviation forecast (TAF) to Al Casale Airfield

Closest forecast is Trieste–Friuli Venezia Giulia Airport, 24.8 nm (45.9 km) ESE.

2024/07/22 06:21 (retrieved 5 hours ago)

TAF LIPQ 220500Z 2206/2306 VRB06KT 9999 FEW040